sensor_id;sensor_type;location;lat;lon;timestamp;P1;durP1;ratioP1;P2;durP2;ratioP2
66400;SDS011;53211;45.040;38.788;2022-12-20T00:01:25;629.45;;;148.30;;
66400;SDS011;53211;45.040;38.788;2022-12-20T00:03:54;623.70;;;145.45;;
66400;SDS011;53211;45.040;38.788;2022-12-20T00:06:22;617.10;;;145.20;;
66400;SDS011;53211;45.040;38.788;2022-12-20T00:08:53;627.55;;;146.15;;
66400;SDS011;53211;45.040;38.788;2022-12-20T00:11:21;647.10;;;144.50;;
66400;SDS011;53211;45.040;38.788;2022-12-20T00:13:47;642.70;;;144.20;;
66400;SDS011;53211;45.040;38.788;2022-12-20T00:16:14;650.90;;;143.20;;
66400;SDS011;53211;45.040;38.788;2022-12-20T00:18:42;641.47;;;146.27;;
66400;SDS011;53211;45.040;38.788;2022-12-20T00:21:10;646.67;;;144.83;;
66400;SDS011;53211;45.040;38.788;2022-12-20T00:23:38;626.67;;;146.20;;
66400;SDS011;53211;45.040;38.788;2022-12-20T00:26:06;623.00;;;145.80;;
66400;SDS011;53211;45.040;38.788;2022-12-20T00:28:35;644.70;;;146.00;;
66400;SDS011;53211;45.040;38.788;2022-12-20T00:31:02;623.25;;;146.70;;
66400;SDS011;53211;45.040;38.788;2022-12-20T00:33:33;622.60;;;146.13;;
66400;SDS011;53211;45.040;38.788;2022-12-20T00:36:00;621.80;;;147.40;;
66400;SDS011;53211;45.040;38.788;2022-12-20T00:38:28;622.30;;;147.90;;
66400;SDS011;53211;45.040;38.788;2022-12-20T00:41:07;620.00;;;147.00;;
66400;SDS011;53211;45.040;38.788;2022-12-20T00:43:36;636.85;;;144.45;;
66400;SDS011;53211;45.040;38.788;2022-12-20T00:46:03;626.30;;;146.20;;
66400;SDS011;53211;45.040;38.788;2022-12-20T00:48:31;636.00;;;146.60;;
66400;SDS011;53211;45.040;38.788;2022-12-20T00:50:58;629.90;;;147.10;;
66400;SDS011;53211;45.040;38.788;2022-12-20T00:53:27;639.20;;;145.40;;
66400;SDS011;53211;45.040;38.788;2022-12-20T00:55:54;613.00;;;149.27;;
66400;SDS011;53211;45.040;38.788;2022-12-20T00:58:21;613.10;;;151.60;;
66400;SDS011;53211;45.040;38.788;2022-12-20T01:00:47;626.25;;;150.60;;
66400;SDS011;53211;45.040;38.788;2022-12-20T01:03:13;613.25;;;153.70;;
66400;SDS011;53211;45.040;38.788;2022-12-20T01:05:48;606.83;;;159.43;;
66400;SDS011;53211;45.040;38.788;2022-12-20T01:08:16;619.50;;;153.70;;
66400;SDS011;53211;45.040;38.788;2022-12-20T01:10:42;622.00;;;149.80;;
66400;SDS011;53211;45.040;38.788;2022-12-20T01:13:08;621.25;;;151.25;;
66400;SDS011;53211;45.040;38.788;2022-12-20T01:15:34;617.35;;;152.90;;
66400;SDS011;53211;45.040;38.788;2022-12-20T01:18:01;619.55;;;152.85;;
66400;SDS011;53211;45.040;38.788;2022-12-20T01:20:27;629.95;;;149.10;;
66400;SDS011;53211;45.040;38.788;2022-12-20T01:22:53;636.70;;;155.45;;
66400;SDS011;53211;45.040;38.788;2022-12-20T01:25:19;638.85;;;146.55;;
66400;SDS011;53211;45.040;38.788;2022-12-20T01:27:45;630.33;;;150.67;;
66400;SDS011;53211;45.040;38.788;2022-12-20T01:30:11;631.45;;;149.40;;
66400;SDS011;53211;45.040;38.788;2022-12-20T01:32:38;629.13;;;148.87;;
66400;SDS011;53211;45.040;38.788;2022-12-20T01:35:04;629.60;;;148.65;;
66400;SDS011;53211;45.040;38.788;2022-12-20T01:37:30;617.70;;;155.45;;
66400;SDS011;53211;45.040;38.788;2022-12-20T01:39:56;629.17;;;148.67;;
66400;SDS011;53211;45.040;38.788;2022-12-20T01:42:23;621.05;;;157.00;;
66400;SDS011;53211;45.040;38.788;2022-12-20T01:44:50;620.25;;;152.40;;
66400;SDS011;53211;45.040;38.788;2022-12-20T01:47:19;624.03;;;154.70;;
66400;SDS011;53211;45.040;38.788;2022-12-20T01:49:47;607.95;;;152.48;;
66400;SDS011;53211;45.040;38.788;2022-12-20T01:55:17;597.20;;;158.10;;
66400;SDS011;53211;45.040;38.788;2022-12-20T02:00:24;605.15;;;153.40;;
66400;SDS011;53211;45.040;38.788;2022-12-20T02:02:50;614.90;;;148.60;;
66400;SDS011;53211;45.040;38.788;2022-12-20T02:05:16;615.57;;;148.33;;
66400;SDS011;53211;45.040;38.788;2022-12-20T02:07:47;608.90;;;151.55;;
66400;SDS011;53211;45.040;38.788;2022-12-20T02:10:18;599.05;;;155.70;;
66400;SDS011;53211;45.040;38.788;2022-12-20T02:12:48;599.10;;;157.47;;
66400;SDS011;53211;45.040;38.788;2022-12-20T02:31:33;602.80;;;152.50;;
66400;SDS011;53211;45.040;38.788;2022-12-20T02:34:05;600.30;;;155.30;;
66400;SDS011;53211;45.040;38.788;2022-12-20T02:36:33;590.05;;;159.65;;
66400;SDS011;53211;45.040;38.788;2022-12-20T02:38:59;576.50;;;172.67;;
66400;SDS011;53211;45.040;38.788;2022-12-20T02:41:36;599.17;;;153.23;;
66400;SDS011;53211;45.040;38.788;2022-12-20T02:44:08;564.65;;;181.35;;
66400;SDS011;53211;45.040;38.788;2022-12-20T02:46:57;567.70;;;180.43;;
66400;SDS011;53211;45.040;38.788;2022-12-20T02:49:28;567.87;;;177.93;;
66400;SDS011;53211;45.040;38.788;2022-12-20T02:51:56;566.55;;;178.73;;
66400;SDS011;53211;45.040;38.788;2022-12-20T02:54:25;564.25;;;185.35;;
66400;SDS011;53211;45.040;38.788;2022-12-20T02:57:07;568.80;;;179.23;;
66400;SDS011;53211;45.040;38.788;2022-12-20T02:59:40;605.05;;;151.25;;
66400;SDS011;53211;45.040;38.788;2022-12-20T03:02:20;605.90;;;151.20;;
66400;SDS011;53211;45.040;38.788;2022-12-20T03:04:48;603.73;;;151.60;;
66400;SDS011;53211;45.040;38.788;2022-12-20T03:07:15;602.30;;;151.50;;
66400;SDS011;53211;45.040;38.788;2022-12-20T03:09:42;600.25;;;149.60;;
66400;SDS011;53211;45.040;38.788;2022-12-20T03:12:12;607.00;;;150.40;;
66400;SDS011;53211;45.040;38.788;2022-12-20T03:14:40;606.20;;;152.23;;
66400;SDS011;53211;45.040;38.788;2022-12-20T03:17:08;596.40;;;153.00;;
66400;SDS011;53211;45.040;38.788;2022-12-20T03:19:36;603.37;;;152.20;;
66400;SDS011;53211;45.040;38.788;2022-12-20T03:22:04;595.70;;;160.93;;
66400;SDS011;53211;45.040;38.788;2022-12-20T03:24:30;596.88;;;149.60;;
66400;SDS011;53211;45.040;38.788;2022-12-20T03:26:57;605.00;;;151.05;;
66400;SDS011;53211;45.040;38.788;2022-12-20T03:29:24;603.25;;;149.45;;
66400;SDS011;53211;45.040;38.788;2022-12-20T03:31:51;605.13;;;150.23;;
66400;SDS011;53211;45.040;38.788;2022-12-20T03:34:17;608.95;;;149.50;;
66400;SDS011;53211;45.040;38.788;2022-12-20T03:36:43;594.50;;;154.40;;
66400;SDS011;53211;45.040;38.788;2022-12-20T03:39:09;596.50;;;152.30;;
66400;SDS011;53211;45.040;38.788;2022-12-20T03:41:37;594.40;;;157.40;;
66400;SDS011;53211;45.040;38.788;2022-12-20T03:44:05;586.60;;;159.60;;
66400;SDS011;53211;45.040;38.788;2022-12-20T03:46:31;587.80;;;162.45;;
66400;SDS011;53211;45.040;38.788;2022-12-20T03:48:57;592.55;;;156.05;;
66400;SDS011;53211;45.040;38.788;2022-12-20T03:51:23;579.15;;;161.25;;
66400;SDS011;53211;45.040;38.788;2022-12-20T03:53:50;581.95;;;162.85;;
66400;SDS011;53211;45.040;38.788;2022-12-20T03:56:17;585.55;;;160.50;;
66400;SDS011;53211;45.040;38.788;2022-12-20T03:58:44;589.70;;;157.55;;
66400;SDS011;53211;45.040;38.788;2022-12-20T04:01:16;598.65;;;153.40;;
66400;SDS011;53211;45.040;38.788;2022-12-20T04:03:53;584.20;;;158.10;;
66400;SDS011;53211;45.040;38.788;2022-12-20T04:06:20;590.05;;;156.15;;
66400;SDS011;53211;45.040;38.788;2022-12-20T04:08:49;579.95;;;160.65;;
66400;SDS011;53211;45.040;38.788;2022-12-20T04:11:22;527.80;;;198.43;;
66400;SDS011;53211;45.040;38.788;2022-12-20T04:13:54;615.40;;;149.10;;
66400;SDS011;53211;45.040;38.788;2022-12-20T04:16:24;614.70;;;151.93;;
66400;SDS011;53211;45.040;38.788;2022-12-20T04:18:53;565.20;;;182.25;;
66400;SDS011;53211;45.040;38.788;2022-12-20T04:21:23;582.50;;;166.50;;
66400;SDS011;53211;45.040;38.788;2022-12-20T04:23:52;579.63;;;165.38;;
66400;SDS011;53211;45.040;38.788;2022-12-20T04:26:19;603.90;;;153.15;;
66400;SDS011;53211;45.040;38.788;2022-12-20T04:28:45;617.58;;;150.10;;
66400;SDS011;53211;45.040;38.788;2022-12-20T04:31:12;617.90;;;147.95;;
66400;SDS011;53211;45.040;38.788;2022-12-20T04:33:38;585.93;;;154.40;;
66400;SDS011;53211;45.040;38.788;2022-12-20T04:36:05;589.83;;;153.67;;
66400;SDS011;53211;45.040;38.788;2022-12-20T04:38:32;627.63;;;143.73;;
66400;SDS011;53211;45.040;38.788;2022-12-20T04:40:58;625.30;;;145.43;;
66400;SDS011;53211;45.040;38.788;2022-12-20T04:43:28;627.42;;;146.52;;
66400;SDS011;53211;45.040;38.788;2022-12-20T04:45:57;612.20;;;150.13;;
66400;SDS011;53211;45.040;38.788;2022-12-20T04:48:25;611.13;;;148.33;;
66400;SDS011;53211;45.040;38.788;2022-12-20T04:50:54;613.80;;;145.80;;
66400;SDS011;53211;45.040;38.788;2022-12-20T04:53:21;619.30;;;144.93;;
66400;SDS011;53211;45.040;38.788;2022-12-20T04:56:07;620.37;;;146.30;;
66400;SDS011;53211;45.040;38.788;2022-12-20T04:58:33;635.00;;;143.70;;
66400;SDS011;53211;45.040;38.788;2022-12-20T05:01:02;632.90;;;143.50;;
66400;SDS011;53211;45.040;38.788;2022-12-20T05:03:36;631.45;;;142.90;;
66400;SDS011;53211;45.040;38.788;2022-12-20T05:06:03;630.57;;;143.13;;
66400;SDS011;53211;45.040;38.788;2022-12-20T05:08:29;633.10;;;143.00;;
66400;SDS011;53211;45.040;38.788;2022-12-20T05:10:56;616.77;;;145.03;;
66400;SDS011;53211;45.040;38.788;2022-12-20T05:13:22;605.30;;;149.57;;
66400;SDS011;53211;45.040;38.788;2022-12-20T05:15:51;597.45;;;152.75;;
66400;SDS011;53211;45.040;38.788;2022-12-20T05:18:24;621.05;;;147.20;;
66400;SDS011;53211;45.040;38.788;2022-12-20T05:21:04;620.67;;;146.90;;
66400;SDS011;53211;45.040;38.788;2022-12-20T05:23:51;623.47;;;145.43;;
66400;SDS011;53211;45.040;38.788;2022-12-20T05:26:58;611.90;;;148.20;;
66400;SDS011;53211;45.040;38.788;2022-12-20T05:29:25;615.80;;;147.45;;
66400;SDS011;53211;45.040;38.788;2022-12-20T05:31:51;616.55;;;147.80;;
66400;SDS011;53211;45.040;38.788;2022-12-20T05:34:18;620.27;;;147.80;;
66400;SDS011;53211;45.040;38.788;2022-12-20T05:36:49;592.33;;;153.13;;
66400;SDS011;53211;45.040;38.788;2022-12-20T05:39:15;593.90;;;153.30;;
66400;SDS011;53211;45.040;38.788;2022-12-20T05:41:44;594.25;;;153.90;;
66400;SDS011;53211;45.040;38.788;2022-12-20T05:44:10;591.65;;;152.50;;
66400;SDS011;53211;45.040;38.788;2022-12-20T05:46:40;594.20;;;153.45;;
66400;SDS011;53211;45.040;38.788;2022-12-20T05:49:11;594.60;;;152.60;;
66400;SDS011;53211;45.040;38.788;2022-12-20T05:51:37;604.47;;;151.43;;
66400;SDS011;53211;45.040;38.788;2022-12-20T05:54:16;596.40;;;153.87;;
66400;SDS011;53211;45.040;38.788;2022-12-20T05:56:57;593.60;;;154.10;;
66400;SDS011;53211;45.040;38.788;2022-12-20T05:59:31;596.10;;;154.15;;
66400;SDS011;53211;45.040;38.788;2022-12-20T06:01:57;591.20;;;154.35;;
66400;SDS011;53211;45.040;38.788;2022-12-20T06:04:24;595.50;;;156.85;;
66400;SDS011;53211;45.040;38.788;2022-12-20T06:06:51;585.15;;;158.00;;
66400;SDS011;53211;45.040;38.788;2022-12-20T06:09:18;582.97;;;161.67;;
66400;SDS011;53211;45.040;38.788;2022-12-20T06:11:59;598.40;;;152.27;;
66400;SDS011;53211;45.040;38.788;2022-12-20T06:14:28;600.60;;;157.90;;
66400;SDS011;53211;45.040;38.788;2022-12-20T06:16:55;598.17;;;154.00;;
66400;SDS011;53211;45.040;38.788;2022-12-20T06:19:21;599.07;;;157.90;;
66400;SDS011;53211;45.040;38.788;2022-12-20T06:21:51;591.77;;;154.93;;
66400;SDS011;53211;45.040;38.788;2022-12-20T06:24:24;609.75;;;155.75;;
66400;SDS011;53211;45.040;38.788;2022-12-20T06:26:52;588.97;;;164.13;;
66400;SDS011;53211;45.040;38.788;2022-12-20T06:29:18;596.37;;;161.33;;
66400;SDS011;53211;45.040;38.788;2022-12-20T06:32:00;595.25;;;163.05;;
66400;SDS011;53211;45.040;38.788;2022-12-20T06:34:26;600.40;;;162.27;;
66400;SDS011;53211;45.040;38.788;2022-12-20T06:36:52;616.43;;;152.50;;
66400;SDS011;53211;45.040;38.788;2022-12-20T06:39:24;624.00;;;149.45;;
66400;SDS011;53211;45.040;38.788;2022-12-20T06:42:08;624.40;;;151.75;;
66400;SDS011;53211;45.040;38.788;2022-12-20T06:44:35;622.63;;;150.07;;
66400;SDS011;53211;45.040;38.788;2022-12-20T06:47:01;623.95;;;150.25;;
66400;SDS011;53211;45.040;38.788;2022-12-20T06:49:28;624.80;;;152.85;;
66400;SDS011;53211;45.040;38.788;2022-12-20T06:51:55;630.47;;;151.83;;
66400;SDS011;53211;45.040;38.788;2022-12-20T06:54:28;622.90;;;149.60;;
66400;SDS011;53211;45.040;38.788;2022-12-20T06:56:54;603.05;;;158.85;;
66400;SDS011;53211;45.040;38.788;2022-12-20T06:59:20;604.13;;;156.00;;
66400;SDS011;53211;45.040;38.788;2022-12-20T07:01:46;604.20;;;155.10;;
66400;SDS011;53211;45.040;38.788;2022-12-20T07:04:12;607.70;;;156.40;;
66400;SDS011;53211;45.040;38.788;2022-12-20T07:06:37;606.20;;;154.40;;
66400;SDS011;53211;45.040;38.788;2022-12-20T07:09:03;608.95;;;157.75;;
66400;SDS011;53211;45.040;38.788;2022-12-20T07:11:29;597.00;;;161.60;;
66400;SDS011;53211;45.040;38.788;2022-12-20T07:13:56;606.93;;;160.20;;
66400;SDS011;53211;45.040;38.788;2022-12-20T07:16:24;605.15;;;158.15;;
66400;SDS011;53211;45.040;38.788;2022-12-20T07:18:51;606.35;;;160.05;;
66400;SDS011;53211;45.040;38.788;2022-12-20T07:21:18;606.00;;;158.43;;
66400;SDS011;53211;45.040;38.788;2022-12-20T07:23:45;606.10;;;160.23;;
66400;SDS011;53211;45.040;38.788;2022-12-20T07:26:11;603.50;;;159.05;;
66400;SDS011;53211;45.040;38.788;2022-12-20T07:28:38;606.70;;;159.25;;
66400;SDS011;53211;45.040;38.788;2022-12-20T07:31:05;605.10;;;158.65;;
66400;SDS011;53211;45.040;38.788;2022-12-20T07:33:31;608.00;;;160.70;;
66400;SDS011;53211;45.040;38.788;2022-12-20T07:36:04;609.90;;;159.95;;
66400;SDS011;53211;45.040;38.788;2022-12-20T07:38:31;606.75;;;158.35;;
66400;SDS011;53211;45.040;38.788;2022-12-20T07:41:00;610.25;;;161.05;;
66400;SDS011;53211;45.040;38.788;2022-12-20T07:43:31;608.10;;;158.45;;
66400;SDS011;53211;45.040;38.788;2022-12-20T07:45:58;614.50;;;164.30;;
66400;SDS011;53211;45.040;38.788;2022-12-20T07:48:23;611.65;;;161.25;;
66400;SDS011;53211;45.040;38.788;2022-12-20T07:50:53;608.95;;;159.75;;
66400;SDS011;53211;45.040;38.788;2022-12-20T07:53:23;610.00;;;157.73;;
66400;SDS011;53211;45.040;38.788;2022-12-20T07:55:52;610.85;;;158.60;;
66400;SDS011;53211;45.040;38.788;2022-12-20T07:58:19;611.40;;;159.30;;
66400;SDS011;53211;45.040;38.788;2022-12-20T08:00:46;611.80;;;160.00;;
66400;SDS011;53211;45.040;38.788;2022-12-20T08:03:14;612.25;;;161.65;;
66400;SDS011;53211;45.040;38.788;2022-12-20T08:05:56;611.50;;;159.65;;
66400;SDS011;53211;45.040;38.788;2022-12-20T08:08:28;612.13;;;159.27;;
66400;SDS011;53211;45.040;38.788;2022-12-20T08:10:57;610.45;;;160.25;;
66400;SDS011;53211;45.040;38.788;2022-12-20T08:13:24;614.05;;;160.10;;
66400;SDS011;53211;45.040;38.788;2022-12-20T08:15:50;611.73;;;157.60;;
66400;SDS011;53211;45.040;38.788;2022-12-20T08:18:16;617.95;;;160.10;;
66400;SDS011;53211;45.040;38.788;2022-12-20T08:20:42;614.30;;;158.70;;
66400;SDS011;53211;45.040;38.788;2022-12-20T08:23:08;615.85;;;159.20;;
66400;SDS011;53211;45.040;38.788;2022-12-20T08:25:34;629.25;;;162.25;;
66400;SDS011;53211;45.040;38.788;2022-12-20T08:28:00;616.30;;;159.10;;
66400;SDS011;53211;45.040;38.788;2022-12-20T08:30:27;610.00;;;162.07;;
66400;SDS011;53211;45.040;38.788;2022-12-20T08:32:53;617.35;;;162.30;;
66400;SDS011;53211;45.040;38.788;2022-12-20T08:35:19;613.40;;;160.30;;
66400;SDS011;53211;45.040;38.788;2022-12-20T08:37:46;613.33;;;160.93;;
66400;SDS011;53211;45.040;38.788;2022-12-20T08:40:12;608.15;;;160.85;;
66400;SDS011;53211;45.040;38.788;2022-12-20T08:42:39;616.05;;;162.05;;
66400;SDS011;53211;45.040;38.788;2022-12-20T08:45:04;612.30;;;164.20;;
66400;SDS011;53211;45.040;38.788;2022-12-20T08:47:31;611.55;;;161.15;;
66400;SDS011;53211;45.040;38.788;2022-12-20T08:49:57;622.35;;;159.05;;
66400;SDS011;53211;45.040;38.788;2022-12-20T08:52:23;621.83;;;159.17;;
66400;SDS011;53211;45.040;38.788;2022-12-20T08:54:48;623.07;;;156.23;;
66400;SDS011;53211;45.040;38.788;2022-12-20T08:57:14;624.05;;;156.65;;
66400;SDS011;53211;45.040;38.788;2022-12-20T08:59:40;624.05;;;156.95;;
66400;SDS011;53211;45.040;38.788;2022-12-20T09:02:06;630.00;;;155.10;;
66400;SDS011;53211;45.040;38.788;2022-12-20T09:04:32;625.80;;;157.75;;
66400;SDS011;53211;45.040;38.788;2022-12-20T09:06:58;653.10;;;152.30;;
66400;SDS011;53211;45.040;38.788;2022-12-20T09:09:24;625.95;;;157.65;;
66400;SDS011;53211;45.040;38.788;2022-12-20T09:11:50;624.20;;;157.10;;
66400;SDS011;53211;45.040;38.788;2022-12-20T09:14:16;624.10;;;157.90;;
66400;SDS011;53211;45.040;38.788;2022-12-20T09:16:43;624.90;;;158.30;;
66400;SDS011;53211;45.040;38.788;2022-12-20T09:19:09;617.00;;;159.70;;
66400;SDS011;53211;45.040;38.788;2022-12-20T09:21:36;622.10;;;163.15;;
66400;SDS011;53211;45.040;38.788;2022-12-20T09:24:05;620.00;;;160.30;;
66400;SDS011;53211;45.040;38.788;2022-12-20T09:26:32;616.30;;;160.20;;
66400;SDS011;53211;45.040;38.788;2022-12-20T09:28:59;619.60;;;162.18;;
66400;SDS011;53211;45.040;38.788;2022-12-20T09:31:26;618.03;;;161.30;;
66400;SDS011;53211;45.040;38.788;2022-12-20T09:33:52;618.30;;;162.10;;
66400;SDS011;53211;45.040;38.788;2022-12-20T09:36:24;613.70;;;158.40;;
66400;SDS011;53211;45.040;38.788;2022-12-20T09:38:51;612.30;;;159.60;;
66400;SDS011;53211;45.040;38.788;2022-12-20T09:41:27;617.30;;;160.80;;
66400;SDS011;53211;45.040;38.788;2022-12-20T09:43:59;615.40;;;161.53;;
66400;SDS011;53211;45.040;38.788;2022-12-20T09:46:35;617.93;;;161.03;;
66400;SDS011;53211;45.040;38.788;2022-12-20T09:49:01;618.40;;;161.55;;
66400;SDS011;53211;45.040;38.788;2022-12-20T09:51:37;622.87;;;162.57;;
66400;SDS011;53211;45.040;38.788;2022-12-20T09:54:34;619.45;;;160.95;;
66400;SDS011;53211;45.040;38.788;2022-12-20T09:59:50;616.00;;;162.70;;
66400;SDS011;53211;45.040;38.788;2022-12-20T10:02:19;617.53;;;162.90;;
66400;SDS011;53211;45.040;38.788;2022-12-20T10:04:47;621.37;;;164.97;;
66400;SDS011;53211;45.040;38.788;2022-12-20T10:10:02;615.80;;;165.60;;
66400;SDS011;53211;45.040;38.788;2022-12-20T10:19:27;583.85;;;198.80;;
66400;SDS011;53211;45.040;38.788;2022-12-20T10:22:04;610.45;;;171.00;;
66400;SDS011;53211;45.040;38.788;2022-12-20T10:24:47;609.75;;;170.20;;
66400;SDS011;53211;45.040;38.788;2022-12-20T10:27:24;614.33;;;168.93;;
66400;SDS011;53211;45.040;38.788;2022-12-20T10:29:50;651.60;;;154.40;;
66400;SDS011;53211;45.040;38.788;2022-12-20T10:32:17;630.75;;;159.60;;
66400;SDS011;53211;45.040;38.788;2022-12-20T10:34:50;629.90;;;158.00;;
66400;SDS011;53211;45.040;38.788;2022-12-20T10:37:21;631.15;;;159.60;;
66400;SDS011;53211;45.040;38.788;2022-12-20T10:39:48;633.60;;;156.90;;
66400;SDS011;53211;45.040;38.788;2022-12-20T10:47:57;645.30;;;153.10;;
66400;SDS011;53211;45.040;38.788;2022-12-20T10:50:25;648.70;;;150.80;;
66400;SDS011;53211;45.040;38.788;2022-12-20T10:55:39;651.40;;;151.20;;
66400;SDS011;53211;45.040;38.788;2022-12-20T11:00:46;651.40;;;151.70;;
66400;SDS011;53211;45.040;38.788;2022-12-20T11:03:18;652.47;;;150.13;;
66400;SDS011;53211;45.040;38.788;2022-12-20T11:05:59;654.35;;;150.10;;
66400;SDS011;53211;45.040;38.788;2022-12-20T11:08:30;655.33;;;149.27;;
66400;SDS011;53211;45.040;38.788;2022-12-20T11:13:42;659.55;;;150.52;;
66400;SDS011;53211;45.040;38.788;2022-12-20T11:16:23;656.05;;;149.85;;
66400;SDS011;53211;45.040;38.788;2022-12-20T11:18:54;658.60;;;149.90;;
66400;SDS011;53211;45.040;38.788;2022-12-20T11:35:24;670.95;;;150.10;;
66400;SDS011;53211;45.040;38.788;2022-12-20T11:38:13;675.63;;;148.40;;
66400;SDS011;53211;45.040;38.788;2022-12-20T11:41:08;669.80;;;149.70;;
66400;SDS011;53211;45.040;38.788;2022-12-20T11:43:39;669.53;;;148.37;;
66400;SDS011;53211;45.040;38.788;2022-12-20T11:52:28;675.15;;;147.90;;
66400;SDS011;53211;45.040;38.788;2022-12-20T11:54:57;670.42;;;146.80;;
66400;SDS011;53211;45.040;38.788;2022-12-20T12:00:21;674.35;;;147.45;;
66400;SDS011;53211;45.040;38.788;2022-12-20T12:03:31;676.40;;;148.60;;
66400;SDS011;53211;45.040;38.788;2022-12-20T12:05:52;680.97;;;150.37;;
66400;SDS011;53211;45.040;38.788;2022-12-20T12:08:44;678.40;;;147.70;;
66400;SDS011;53211;45.040;38.788;2022-12-20T12:11:20;676.87;;;149.53;;
66400;SDS011;53211;45.040;38.788;2022-12-20T12:13:49;677.85;;;150.35;;
66400;SDS011;53211;45.040;38.788;2022-12-20T12:18:45;673.47;;;149.50;;
66400;SDS011;53211;45.040;38.788;2022-12-20T12:21:23;677.83;;;151.37;;
66400;SDS011;53211;45.040;38.788;2022-12-20T12:26:43;685.50;;;147.20;;
66400;SDS011;53211;45.040;38.788;2022-12-20T12:29:14;676.73;;;151.13;;
66400;SDS011;53211;45.040;38.788;2022-12-20T12:31:49;677.13;;;148.85;;
66400;SDS011;53211;45.040;38.788;2022-12-20T12:46:03;666.80;;;146.70;;
66400;SDS011;53211;45.040;38.788;2022-12-20T12:48:40;671.90;;;147.25;;
66400;SDS011;53211;45.040;38.788;2022-12-20T12:51:11;666.75;;;149.65;;
66400;SDS011;53211;45.040;38.788;2022-12-20T12:53:43;667.60;;;149.60;;
66400;SDS011;53211;45.040;38.788;2022-12-20T13:11:51;658.50;;;147.45;;
66400;SDS011;53211;45.040;38.788;2022-12-20T13:40:20;638.93;;;165.57;;
66400;SDS011;53211;45.040;38.788;2022-12-20T13:43:27;635.47;;;153.07;;
66400;SDS011;53211;45.040;38.788;2022-12-20T13:51:18;627.00;;;155.83;;
66400;SDS011;53211;45.040;38.788;2022-12-20T13:53:52;628.80;;;154.90;;
66400;SDS011;53211;45.040;38.788;2022-12-20T13:59:04;623.70;;;153.05;;
66400;SDS011;53211;45.040;38.788;2022-12-20T14:01:52;632.65;;;152.95;;
66400;SDS011;53211;45.040;38.788;2022-12-20T14:04:21;633.22;;;152.35;;
66400;SDS011;53211;45.040;38.788;2022-12-20T14:06:53;645.45;;;149.70;;
66400;SDS011;53211;45.040;38.788;2022-12-20T14:09:25;638.15;;;150.80;;
66400;SDS011;53211;45.040;38.788;2022-12-20T14:12:05;638.13;;;152.40;;
66400;SDS011;53211;45.040;38.788;2022-12-20T14:14:37;628.73;;;155.93;;
66400;SDS011;53211;45.040;38.788;2022-12-20T14:17:21;625.80;;;157.90;;
66400;SDS011;53211;45.040;38.788;2022-12-20T14:20:03;626.95;;;154.10;;
66400;SDS011;53211;45.040;38.788;2022-12-20T14:22:30;637.95;;;148.25;;
66400;SDS011;53211;45.040;38.788;2022-12-20T14:24:59;641.83;;;148.10;;
66400;SDS011;53211;45.040;38.788;2022-12-20T14:27:29;639.90;;;148.70;;
66400;SDS011;53211;45.040;38.788;2022-12-20T14:30:00;639.15;;;147.70;;
66400;SDS011;53211;45.040;38.788;2022-12-20T14:32:26;635.10;;;150.80;;
66400;SDS011;53211;45.040;38.788;2022-12-20T14:34:53;635.30;;;149.43;;
66400;SDS011;53211;45.040;38.788;2022-12-20T14:39:55;637.25;;;150.70;;
66400;SDS011;53211;45.040;38.788;2022-12-20T14:42:32;646.95;;;154.45;;
66400;SDS011;53211;45.040;38.788;2022-12-20T14:45:19;636.97;;;152.33;;
66400;SDS011;53211;45.040;38.788;2022-12-20T14:47:47;626.43;;;157.80;;
66400;SDS011;53211;45.040;38.788;2022-12-20T14:50:32;633.60;;;160.10;;
66400;SDS011;53211;45.040;38.788;2022-12-20T14:53:02;623.65;;;158.15;;
66400;SDS011;53211;45.040;38.788;2022-12-20T14:55:37;620.70;;;151.40;;
66400;SDS011;53211;45.040;38.788;2022-12-20T14:58:26;623.70;;;155.00;;
66400;SDS011;53211;45.040;38.788;2022-12-20T15:01:02;620.33;;;151.23;;
66400;SDS011;53211;45.040;38.788;2022-12-20T15:03:49;621.00;;;152.65;;
66400;SDS011;53211;45.040;38.788;2022-12-20T15:09:17;626.70;;;153.40;;
66400;SDS011;53211;45.040;38.788;2022-12-20T15:11:44;630.20;;;151.75;;
66400;SDS011;53211;45.040;38.788;2022-12-20T15:14:21;627.80;;;149.05;;
66400;SDS011;53211;45.040;38.788;2022-12-20T15:17:02;623.65;;;148.30;;
66400;SDS011;53211;45.040;38.788;2022-12-20T15:19:30;624.05;;;150.40;;
66400;SDS011;53211;45.040;38.788;2022-12-20T15:21:57;622.45;;;149.50;;
66400;SDS011;53211;45.040;38.788;2022-12-20T15:24:26;626.80;;;149.45;;
66400;SDS011;53211;45.040;38.788;2022-12-20T15:26:52;624.40;;;149.57;;
66400;SDS011;53211;45.040;38.788;2022-12-20T15:29:26;619.75;;;150.10;;
66400;SDS011;53211;45.040;38.788;2022-12-20T15:31:58;618.60;;;150.10;;
66400;SDS011;53211;45.040;38.788;2022-12-20T15:34:36;616.60;;;150.10;;
66400;SDS011;53211;45.040;38.788;2022-12-20T15:37:03;619.45;;;150.80;;
66400;SDS011;53211;45.040;38.788;2022-12-20T15:39:30;630.43;;;157.30;;
66400;SDS011;53211;45.040;38.788;2022-12-20T15:42:00;618.65;;;149.25;;
66400;SDS011;53211;45.040;38.788;2022-12-20T15:44:29;615.55;;;148.65;;
66400;SDS011;53211;45.040;38.788;2022-12-20T15:46:56;621.92;;;154.15;;
66400;SDS011;53211;45.040;38.788;2022-12-20T15:49:26;620.50;;;151.10;;
66400;SDS011;53211;45.040;38.788;2022-12-20T15:51:54;619.35;;;150.80;;
66400;SDS011;53211;45.040;38.788;2022-12-20T15:56:47;619.95;;;152.40;;
66400;SDS011;53211;45.040;38.788;2022-12-20T15:59:13;625.65;;;156.90;;
66400;SDS011;53211;45.040;38.788;2022-12-20T16:01:39;629.67;;;147.93;;
66400;SDS011;53211;45.040;38.788;2022-12-20T16:04:06;613.55;;;150.40;;
66400;SDS011;53211;45.040;38.788;2022-12-20T16:06:37;612.57;;;149.40;;
66400;SDS011;53211;45.040;38.788;2022-12-20T16:09:03;615.70;;;150.40;;
66400;SDS011;53211;45.040;38.788;2022-12-20T16:11:30;617.70;;;150.85;;
66400;SDS011;53211;45.040;38.788;2022-12-20T16:13:56;615.57;;;149.20;;
66400;SDS011;53211;45.040;38.788;2022-12-20T16:16:25;617.07;;;152.17;;
66400;SDS011;53211;45.040;38.788;2022-12-20T16:18:55;617.85;;;149.05;;
66400;SDS011;53211;45.040;38.788;2022-12-20T16:21:55;613.00;;;150.85;;
66400;SDS011;53211;45.040;38.788;2022-12-20T16:24:17;615.15;;;150.25;;
66400;SDS011;53211;45.040;38.788;2022-12-20T16:26:44;615.70;;;150.27;;